Time;durP1;ratioP1;P1;durP2;ratioP2;P2;SDS_P1;SDS_P2;PMS_P1;PMS_P2;Temp;Humidity;BMP_temperature;BMP_pressure;BME280_temperature;BME280_humidity;BME280_pressure;Samples;Min_cycle;Max_cycle;Signal;HPM_P1;HPM_P2
2022/11/11 00:01:59;;;;;;;27.35;16.80;;;;;;;11.80;81.64;101839.34;5089611;28;20019;-76
2022/11/11 00:04:26;;;;;;;26.13;15.50;;;;;;;11.83;81.00;101841.00;5089802;28;20024;-76
2022/11/11 00:06:52;;;;;;;27.40;17.23;;;;;;;11.84;81.60;101848.97;5071394;28;20028;-76
2022/11/11 00:09:18;;;;;;;30.70;16.17;;;;;;;11.82;81.80;101834.75;5089533;28;20046;-76
2022/11/11 00:11:43;;;;;;;29.92;14.68;;;;;;;11.86;81.21;101840.81;5089226;28;20089;-75
2022/11/11 00:14:09;;;;;;;37.95;16.05;;;;;;;11.79;81.59;101836.78;5037183;28;20040;-74
2022/11/11 00:25:04;;;;;;;28.17;14.63;;;;;;;11.85;81.84;101828.28;5059507;28;20124;-75
2022/11/11 00:27:30;;;;;;;24.75;14.60;;;;;;;11.90;81.60;101836.91;5097301;28;20032;-75
2022/11/11 00:29:56;;;;;;;22.00;13.70;;;;;;;11.91;81.69;101827.88;5059766;28;20040;-75
2022/11/11 00:32:29;;;;;;;19.77;11.68;;;;;;;11.88;81.33;101831.63;5091895;28;20078;-76
2022/11/11 00:38:44;;;;;;;14.27;9.82;;;;;;;11.84;80.25;101815.75;5006820;28;20028;-75
2022/11/11 00:40:57;;;;;;;16.15;10.05;;;;;;;11.83;80.71;101820.28;5006549;28;20420;-77
2022/11/11 00:43:23;;;;;;;15.45;10.00;;;;;;;11.79;80.68;101818.78;5006722;28;20038;-75
2022/11/11 00:45:48;;;;;;;16.55;9.75;;;;;;;11.84;80.50;101826.53;5006602;28;20029;-75
2022/11/11 00:50:57;;;;;;;21.08;11.82;;;;;;;11.84;81.12;101835.50;5006889;28;20064;-77
2022/11/11 00:53:26;;;;;;;17.15;12.88;;;;;;;11.76;81.19;101824.38;5006375;28;20030;-75
2022/11/11 00:55:52;;;;;;;17.75;13.02;;;;;;;11.76;81.62;101831.59;5006318;28;20029;-74
2022/11/11 00:58:17;;;;;;;20.85;12.32;;;;;;;11.69;81.58;101816.75;5006390;28;20040;-75
2022/11/11 01:00:43;;;;;;;32.30;14.73;;;;;;;11.67;81.68;101827.66;5006438;28;20026;-76
2022/11/11 01:03:09;;;;;;;18.08;13.57;;;;;;;11.69;81.67;101820.31;5010457;28;20050;-75
2022/11/11 01:05:37;;;;;;;23.08;14.10;;;;;;;11.68;81.86;101826.66;5010477;28;20044;-78
2022/11/11 01:08:03;;;;;;;22.50;14.77;;;;;;;11.58;81.65;101824.72;5027340;28;20062;-78
2022/11/11 01:10:37;;;;;;;29.50;14.00;;;;;;;11.55;82.17;101828.47;5093253;28;20165;-76
2022/11/11 01:13:13;;;;;;;23.08;14.35;;;;;;;11.52;82.90;101823.28;5093340;28;20020;-79
2022/11/11 01:15:40;;;;;;;18.33;13.95;;;;;;;11.51;83.02;101818.84;5092827;28;20024;-80
2022/11/11 01:18:07;;;;;;;18.98;13.18;;;;;;;11.35;82.92;101793.88;5092806;28;20123;-78
2022/11/11 01:20:33;;;;;;;22.45;13.43;;;;;;;11.52;83.47;101822.44;5092703;28;20422;-78
2022/11/11 01:22:58;;;;;;;23.02;13.82;;;;;;;11.47;83.64;101812.81;5093300;28;20028;-78
2022/11/11 01:25:23;;;;;;;20.55;14.45;;;;;;;11.57;83.36;101813.06;5092995;28;20031;-79
2022/11/11 01:27:49;;;;;;;25.33;14.50;;;;;;;11.62;83.34;101827.09;5092738;28;20043;-77
2022/11/11 01:30:15;;;;;;;20.17;12.27;;;;;;;11.66;82.99;101822.34;5092683;28;20031;-75
2022/11/11 01:32:40;;;;;;;17.73;11.90;;;;;;;11.65;83.24;101809.88;5092484;28;20055;-76
2022/11/11 01:35:06;;;;;;;16.80;12.48;;;;;;;11.71;82.66;101812.19;5076529;28;20048;-76
2022/11/11 01:37:32;;;;;;;27.77;13.25;;;;;;;11.50;82.94;101790.19;5102547;28;20016;-76
2022/11/11 01:39:58;;;;;;;20.10;12.40;;;;;;;11.67;82.39;101819.56;5101983;28;20032;-75
2022/11/11 01:42:23;;;;;;;21.80;12.63;;;;;;;11.67;81.75;101810.63;5095546;28;20020;-76
2022/11/11 01:44:49;;;;;;;26.83;13.40;;;;;;;11.63;81.25;101812.66;5039575;28;20054;-75
2022/11/11 01:47:16;;;;;;;22.00;13.55;;;;;;;11.66;81.11;101814.28;5092228;28;20480;-76
2022/11/11 01:49:54;;;;;;;27.00;12.55;;;;;;;11.44;80.37;101774.41;5091839;28;20032;-76
2022/11/11 01:52:29;;;;;;;21.92;12.50;;;;;;;11.32;79.27;101777.94;5092208;28;20107;-76
2022/11/11 01:55:00;;;;;;;27.38;13.10;;;;;;;11.45;79.02;101808.50;5091985;28;20118;-75
2022/11/11 01:57:39;;;;;;;18.48;12.60;;;;;;;11.43;78.89;101805.03;5092186;28;20024;-76
2022/11/11 02:00:11;;;;;;;25.08;14.82;;;;;;;11.36;79.13;101809.97;5091997;28;20085;-77
2022/11/11 02:02:40;;;;;;;22.20;13.25;;;;;;;11.26;78.59;101816.03;5092055;28;20414;-75
2022/11/11 02:07:53;;;;;;;23.75;13.32;;;;;;;10.84;78.49;101757.78;5091938;28;20085;-75
2022/11/11 02:10:24;;;;;;;29.48;14.77;;;;;;;10.89;78.59;101780.75;5091449;28;20020;-77
2022/11/11 02:15:36;;;;;;;22.45;14.60;;;;;;;11.10;78.30;101818.03;5092004;28;20050;-75
2022/11/11 02:18:02;;;;;;;40.78;15.27;;;;;;;11.09;78.10;101816.28;5091299;28;20024;-75
2022/11/11 02:20:33;;;;;;;28.27;16.02;;;;;;;11.11;78.39;101814.34;5091472;28;20073;-76
2022/11/11 02:23:22;;;;;;;32.63;15.68;;;;;;;11.02;78.38;101799.66;5091310;28;20029;-75
2022/11/11 02:25:50;;;;;;;23.17;14.73;;;;;;;10.91;78.07;101786.91;5091463;28;20028;-76
2022/11/11 02:28:18;;;;;;;24.67;15.20;;;;;;;11.12;77.92;101822.34;5091295;28;20028;-77
2022/11/11 02:30:43;;;;;;;21.70;13.85;;;;;;;10.97;77.54;101807.19;5091516;28;20076;-75
2022/11/11 02:33:09;;;;;;;53.35;17.23;;;;;;;10.74;78.02;101819.41;5091390;28;20724;-75
2022/11/11 02:35:39;;;;;;;20.38;14.23;;;;;;;10.72;78.06;101817.78;5073174;28;20571;-76
2022/11/11 02:38:10;;;;;;;24.30;15.55;;;;;;;10.67;78.21;101823.44;5055708;28;20036;-77
2022/11/11 02:43:35;;;;;;;27.83;17.67;;;;;;;10.56;78.27;101828.63;5028386;28;20577;-74
2022/11/11 02:46:02;;;;;;;23.75;17.38;;;;;;;10.56;78.17;101828.63;5034408;28;20057;-77
2022/11/11 02:48:29;;;;;;;32.42;21.75;;;;;;;10.37;78.10;101804.69;5033853;28;20036;-75
2022/11/11 02:50:54;;;;;;;32.40;21.88;;;;;;;10.47;77.49;101833.69;5032521;28;20065;-75
2022/11/11 02:53:20;;;;;;;29.35;23.35;;;;;;;10.40;77.71;101835.06;5028917;28;20635;-75
2022/11/11 02:55:46;;;;;;;37.17;25.17;;;;;;;10.29;77.54;101822.25;5028542;28;20438;-75
2022/11/11 02:58:12;;;;;;;35.10;26.35;;;;;;;10.18;77.02;101827.44;5028460;28;20026;-76
2022/11/11 03:00:38;;;;;;;34.05;27.45;;;;;;;10.13;77.65;101827.69;5028220;28;20092;-76
2022/11/11 03:03:03;;;;;;;43.65;29.63;;;;;;;9.99;77.79;101826.78;5028230;28;20433;-76
2022/11/11 03:05:29;;;;;;;40.03;31.85;;;;;;;9.78;78.62;101821.69;5027828;28;20499;-75
2022/11/11 03:07:54;;;;;;;40.25;31.05;;;;;;;9.92;79.14;101817.34;5028049;28;20112;-75
2022/11/11 03:10:20;;;;;;;35.67;30.75;;;;;;;9.83;79.62;101794.56;5027684;28;20040;-76
2022/11/11 03:12:45;;;;;;;42.85;34.63;;;;;;;9.84;79.61;101810.63;5027783;28;20053;-75
2022/11/11 03:15:11;;;;;;;49.08;34.05;;;;;;;9.65;79.76;101790.28;5011060;28;20036;-75
2022/11/11 03:17:39;;;;;;;42.75;32.78;;;;;;;9.81;79.89;101810.75;5027774;28;20075;-77
2022/11/11 03:23:00;;;;;;;41.85;32.63;;;;;;;10.02;80.52;101829.28;5090547;28;20177;-76
2022/11/11 03:25:37;;;;;;;41.83;30.50;;;;;;;9.98;80.17;101814.28;5071213;28;20050;-76
2022/11/11 03:28:14;;;;;;;40.00;33.33;;;;;;;9.85;80.98;101798.88;5090227;28;20558;-75
2022/11/11 03:30:42;;;;;;;44.67;35.10;;;;;;;9.77;80.43;101794.94;5090158;28;20498;-76
2022/11/11 03:33:08;;;;;;;48.95;36.55;;;;;;;9.92;80.65;101833.47;5072005;28;20402;-76
2022/11/11 03:35:34;;;;;;;44.63;34.50;;;;;;;9.89;80.96;101822.88;5090136;28;20056;-76
2022/11/11 03:38:17;;;;;;;46.13;37.38;;;;;;;9.83;81.04;101830.38;5089945;28;20695;-76
2022/11/11 03:40:43;;;;;;;52.05;39.65;;;;;;;9.67;81.31;101816.09;5089929;28;20028;-76
2022/11/11 03:43:09;;;;;;;59.10;39.28;;;;;;;9.16;81.53;101730.53;5090298;28;20108;-76
2022/11/11 03:45:34;;;;;;;58.22;42.63;;;;;;;9.63;81.98;101819.06;5089863;28;20107;-76
2022/11/11 03:48:00;;;;;;;56.75;42.40;;;;;;;9.64;82.39;101831.53;5090530;28;20112;-75
2022/11/11 03:50:25;;;;;;;59.05;42.83;;;;;;;9.63;82.81;101836.03;5089647;28;20475;-77
2022/11/11 03:52:51;;;;;;;68.97;50.22;;;;;;;9.62;83.00;101833.44;5089831;28;20028;-75
2022/11/11 03:55:16;;;;;;;67.68;47.78;;;;;;;9.68;83.56;101838.47;5092818;28;20057;-78
2022/11/11 03:57:44;;;;;;;83.63;54.78;;;;;;;9.70;83.96;101842.78;5101740;28;20024;-75
2022/11/11 04:00:15;;;;;;;86.28;57.13;;;;;;;9.70;84.42;101837.41;5083051;28;20028;-75
2022/11/11 04:11:02;;;;;;;99.20;66.25;;;;;;;9.97;84.04;101836.75;5089565;28;20457;-77
2022/11/11 04:16:17;;;;;;;101.32;65.32;;;;;;;10.01;83.65;101835.59;5026715;28;20044;-75
2022/11/11 04:21:42;;;;;;;100.30;66.40;;;;;;;10.09;83.37;101833.34;5026775;28;20507;-74
2022/11/11 04:26:57;;;;;;;100.47;66.40;;;;;;;10.16;83.16;101832.88;5026672;28;20052;-75
2022/11/11 04:29:29;;;;;;;92.05;64.10;;;;;;;10.17;83.09;101836.44;4993524;28;20211;-75
2022/11/11 04:34:48;;;;;;;99.50;63.00;;;;;;;10.02;83.25;101807.78;5026608;28;20141;-74
2022/11/11 04:37:15;;;;;;;97.63;59.15;;;;;;;10.31;83.27;101841.84;5026054;28;20176;-74
2022/11/11 04:42:24;;;;;;;96.18;60.88;;;;;;;10.34;82.91;101845.22;5026653;28;20060;-75
2022/11/11 04:47:35;;;;;;;83.80;56.00;;;;;;;10.22;82.81;101828.97;5026396;28;20076;-74
2022/11/11 04:50:00;;;;;;;77.03;53.97;;;;;;;10.33;82.53;101843.50;5026590;28;20072;-75
2022/11/11 04:52:26;;;;;;;75.50;51.05;;;;;;;10.23;82.76;101812.75;5034017;28;20483;-76
2022/11/11 04:57:45;;;;;;;72.47;45.67;;;;;;;10.48;82.57;101847.06;5087181;28;20113;-75
2022/11/11 05:00:14;;;;;;;72.90;47.45;;;;;;;10.51;81.97;101841.50;5085962;28;20025;-74
2022/11/11 05:05:25;;;;;;;87.53;52.33;;;;;;;10.57;81.63;101857.25;5088787;28;20084;-75
2022/11/11 05:10:35;;;;;;;79.22;54.10;;;;;;;10.64;81.65;101871.22;5096651;28;20062;-75
2022/11/11 05:21:20;;;;;;;92.95;58.65;;;;;;;10.83;81.17;101891.47;5089020;28;20043;-76
2022/11/11 05:26:30;;;;;;;91.65;55.60;;;;;;;10.90;80.76;101890.16;5088781;28;20062;-75
2022/11/11 05:28:55;;;;;;;133.43;57.05;;;;;;;11.01;80.30;101894.00;5089014;28;20052;-74
2022/11/11 05:31:21;;;;;;;97.85;56.45;;;;;;;11.07;80.60;101893.59;5088429;28;20024;-76
2022/11/11 05:33:46;;;;;;;135.63;58.97;;;;;;;11.10;80.06;101894.25;5088982;28;20039;-78
2022/11/11 05:36:12;;;;;;;126.70;60.50;;;;;;;11.18;80.00;101896.47;5070912;28;20028;-77
2022/11/11 05:38:37;;;;;;;99.47;59.80;;;;;;;11.29;79.64;101891.25;5088275;28;20783;-77
2022/11/11 05:41:02;;;;;;;129.85;62.42;;;;;;;11.36;79.24;101882.69;5088245;28;20020;-75
2022/11/11 05:43:28;;;;;;;125.13;61.10;;;;;;;11.46;79.56;101896.44;5088647;28;20032;-74
2022/11/11 05:45:53;;;;;;;109.00;55.17;;;;;;;11.30;79.51;101863.38;5086099;28;20055;-77
2022/11/11 05:48:19;;;;;;;174.32;57.72;;;;;;;11.58;78.78;101903.72;5088307;28;20103;-77
2022/11/11 05:50:44;;;;;;;101.28;52.92;;;;;;;11.46;78.73;101861.41;5091057;28;20032;-77
2022/11/11 05:53:09;;;;;;;250.73;66.93;;;;;;;11.69;78.66;101887.69;5091292;28;20024;-77
2022/11/11 05:55:35;;;;;;;108.32;47.45;;;;;;;11.72;79.13;101892.06;5091026;28;20028;-76
2022/11/11 05:58:00;;;;;;;100.57;45.92;;;;;;;11.84;79.05;101902.03;5091157;28;20036;-77
2022/11/11 06:00:26;;;;;;;69.68;42.47;;;;;;;11.95;78.37;101896.81;5090828;28;20032;-77
2022/11/11 06:02:51;;;;;;;62.35;37.53;;;;;;;12.04;78.45;101892.63;5091093;28;20165;-77
2022/11/11 06:05:17;;;;;;;67.45;37.80;;;;;;;12.02;78.20;101890.00;5090927;28;20028;-77
2022/11/11 06:07:42;;;;;;;57.35;35.30;;;;;;;12.13;77.59;101902.78;5091234;28;20039;-77
2022/11/11 06:13:04;;;;;;;53.15;35.58;;;;;;;12.28;77.10;101912.53;5060884;28;20050;-76
2022/11/11 06:15:37;;;;;;;95.45;37.33;;;;;;;12.36;76.98;101907.47;5100097;28;20047;-77
2022/11/11 06:18:04;;;;;;;84.07;36.38;;;;;;;12.36;76.75;101904.75;5107085;28;20067;-77
2022/11/11 06:20:30;;;;;;;105.72;36.53;;;;;;;12.43;76.42;101896.16;5100755;28;20024;-78
2022/11/11 06:22:56;;;;;;;103.00;38.40;;;;;;;12.62;75.69;101917.34;5090912;28;20076;-75
2022/11/11 06:28:15;;;;;;;89.35;35.22;;;;;;;12.79;75.41;101914.31;5090594;28;20105;-75
2022/11/11 06:30:41;;;;;;;64.85;32.47;;;;;;;12.81;75.53;101916.94;5090246;28;20426;-74
2022/11/11 06:33:06;;;;;;;105.80;32.78;;;;;;;12.87;75.00;101913.78;5090435;28;20035;-76
2022/11/11 06:35:34;;;;;;;57.50;30.00;;;;;;;12.79;74.60;101902.66;5089730;28;20145;-75
2022/11/11 06:38:00;;;;;;;96.43;33.30;;;;;;;12.95;74.91;101922.22;5089913;28;20388;-73
2022/11/11 06:40:25;;;;;;;83.00;30.80;;;;;;;13.02;74.34;101921.69;5089727;28;20081;-75
2022/11/11 06:42:50;;;;;;;99.40;32.38;;;;;;;13.06;74.25;101927.69;5089626;28;20063;-75
2022/11/11 06:45:16;;;;;;;222.60;39.85;;;;;;;13.09;74.24;101925.69;5054078;28;20116;-77
2022/11/11 06:47:42;;;;;;;111.53;51.22;;;;;;;13.07;73.98;101915.94;5089221;28;20020;-75
2022/11/11 06:50:08;;;;;;;347.83;49.08;;;;;;;13.01;73.95;101898.34;5090460;28;20214;-76
2022/11/11 06:52:33;;;;;;;73.93;31.00;;;;;;;13.19;73.66;101925.03;5089084;28;20115;-76
2022/11/11 06:54:59;;;;;;;68.53;30.63;;;;;;;13.21;73.61;101915.84;5089495;28;20107;-76
2022/11/11 06:57:24;;;;;;;75.30;42.13;;;;;;;13.18;73.23;101910.66;5090295;28;20021;-77
2022/11/11 06:59:50;;;;;;;211.30;40.78;;;;;;;13.29;73.59;101909.88;5089431;28;20115;-76
2022/11/11 07:02:15;;;;;;;69.10;32.50;;;;;;;13.30;73.16;101914.34;5086820;28;20034;-76
2022/11/11 07:04:41;;;;;;;59.10;30.63;;;;;;;13.29;73.20;101907.19;5089572;28;20036;-78
2022/11/11 07:07:06;;;;;;;85.65;34.22;;;;;;;13.34;73.09;101932.03;5089450;28;20040;-76
2022/11/11 07:09:31;;;;;;;65.68;32.97;;;;;;;13.38;73.04;101922.72;5089125;28;20482;-76
2022/11/11 07:11:57;;;;;;;65.65;35.80;;;;;;;13.37;73.00;101921.00;5089752;28;20027;-74
2022/11/11 07:14:22;;;;;;;74.75;34.00;;;;;;;13.40;72.71;101920.78;5089401;28;20024;-77
2022/11/11 07:16:48;;;;;;;99.13;61.90;;;;;;;13.28;72.86;101905.44;5046812;28;20037;-77
2022/11/11 07:19:13;;;;;;;79.18;39.03;;;;;;;13.28;72.84;101902.75;5046720;28;20048;-74
2022/11/11 07:21:38;;;;;;;64.75;36.05;;;;;;;13.42;73.05;101929.66;5046910;28;20043;-76
2022/11/11 07:24:04;;;;;;;70.25;38.15;;;;;;;13.39;72.76;101930.72;5033942;28;20032;-79
2022/11/11 07:26:29;;;;;;;77.43;38.45;;;;;;;13.52;73.24;101934.25;5060860;28;20037;-81
2022/11/11 07:28:55;;;;;;;82.93;39.65;;;;;;;13.48;73.10;101915.69;5066873;28;20088;-79
2022/11/11 07:31:21;;;;;;;84.57;39.90;;;;;;;13.56;72.96;101926.78;5060571;28;20144;-79
2022/11/11 07:33:46;;;;;;;78.18;40.15;;;;;;;13.73;72.95;101934.53;5046663;28;20451;-78
2022/11/11 07:36:11;;;;;;;73.53;38.85;;;;;;;13.82;72.79;101928.44;5046139;28;20052;-78
2022/11/11 07:38:37;;;;;;;81.75;39.72;;;;;;;13.87;72.77;101926.28;5045768;28;20039;-75
2022/11/11 07:41:03;;;;;;;75.18;40.80;;;;;;;13.90;72.63;101920.63;5045422;28;20349;-76
2022/11/11 07:43:29;;;;;;;117.47;40.75;;;;;;;13.96;72.07;101908.47;5045984;28;20041;-83
2022/11/11 07:45:54;;;;;;;114.13;43.33;;;;;;;14.18;72.00;101936.53;5046042;28;20040;-75
2022/11/11 07:48:20;;;;;;;103.90;46.25;;;;;;;14.07;71.28;101895.88;5055444;28;20045;-75
2022/11/11 07:50:45;;;;;;;90.55;48.97;;;;;;;14.25;70.87;101938.75;5068191;28;20028;-76
2022/11/11 07:53:11;;;;;;;113.72;48.70;;;;;;;14.17;71.08;101902.31;5065927;28;20051;-77
2022/11/11 07:55:36;;;;;;;126.88;55.58;;;;;;;14.47;70.95;101938.84;5068042;28;20028;-76
2022/11/11 07:58:02;;;;;;;393.38;68.97;;;;;;;14.52;70.45;101933.97;5067926;28;20033;-77
2022/11/11 08:00:27;;;;;;;167.52;56.35;;;;;;;14.57;70.53;101929.06;5067444;28;20035;-77
2022/11/11 08:02:52;;;;;;;107.50;57.42;;;;;;;14.65;70.04;101929.31;5067992;28;20036;-78
2022/11/11 08:05:18;;;;;;;106.70;57.00;;;;;;;14.74;69.91;101934.00;5069524;28;20027;-77
2022/11/11 08:07:43;;;;;;;129.13;59.10;;;;;;;14.77;69.48;101928.34;5069854;28;20486;-75
2022/11/11 08:10:10;;;;;;;135.02;62.70;;;;;;;14.93;69.70;101939.72;5068450;28;20033;-75
2022/11/11 08:15:20;;;;;;;135.70;64.03;;;;;;;15.07;67.52;101942.22;5067598;28;20589;-76
2022/11/11 08:17:45;;;;;;;133.10;63.25;;;;;;;14.91;67.14;101920.03;5066388;28;20115;-75
2022/11/11 08:20:12;;;;;;;114.28;58.90;;;;;;;15.18;67.06;101950.34;5067892;28;20097;-77
2022/11/11 08:22:39;;;;;;;105.22;57.55;;;;;;;15.30;67.03;101950.34;5067902;28;20037;-76
2022/11/11 08:25:07;;;;;;;118.07;60.60;;;;;;;15.19;67.22;101924.97;5068696;28;20032;-76
2022/11/11 08:27:33;;;;;;;141.18;59.85;;;;;;;15.42;66.50;101946.63;5064586;28;20489;-75
2022/11/11 08:29:59;;;;;;;129.25;57.60;;;;;;;15.45;66.39;101944.53;5065203;28;20031;-77
2022/11/11 08:32:24;;;;;;;172.30;67.65;;;;;;;15.44;66.31;101939.25;5071613;28;20033;-76
2022/11/11 08:34:49;;;;;;;97.18;54.72;;;;;;;15.67;66.15;101951.84;5072367;28;20067;-76
2022/11/11 08:37:15;;;;;;;127.93;57.95;;;;;;;15.84;66.12;101953.19;5081394;28;20071;-77
2022/11/11 08:39:40;;;;;;;135.23;55.50;;;;;;;15.76;65.02;101919.41;5087337;28;20059;-76
2022/11/11 08:42:06;;;;;;;112.15;56.60;;;;;;;15.92;64.29;101943.41;5087826;28;20020;-76
2022/11/11 08:44:31;;;;;;;95.88;56.13;;;;;;;16.00;64.55;101946.34;5085827;28;20028;-77
2022/11/11 08:46:57;;;;;;;163.40;57.42;;;;;;;16.07;64.63;101954.84;5087501;28;20028;-75
2022/11/11 08:49:22;;;;;;;100.32;55.58;;;;;;;16.00;64.44;101921.91;5080516;28;20488;-75
2022/11/11 08:51:48;;;;;;;140.60;60.25;;;;;;;16.27;64.16;101951.31;5067433;28;20029;-75
2022/11/11 08:54:13;;;;;;;107.45;58.38;;;;;;;16.36;63.85;101949.69;5067261;28;20031;-74
2022/11/11 08:56:39;;;;;;;128.57;55.13;;;;;;;16.43;63.58;101959.88;5084823;28;20097;-76
2022/11/11 08:59:05;;;;;;;107.95;58.13;;;;;;;16.49;63.20;101950.34;5087923;28;20089;-74
2022/11/11 09:01:30;;;;;;;103.60;58.17;;;;;;;16.48;63.07;101951.34;5078051;28;20411;-74
2022/11/11 09:03:56;;;;;;;124.05;59.83;;;;;;;16.40;62.94;101951.13;5067845;28;20044;-74
2022/11/11 09:06:21;;;;;;;115.13;62.58;;;;;;;16.36;63.33;101952.41;5067823;28;20039;-75
2022/11/11 09:08:47;;;;;;;110.25;60.53;;;;;;;16.31;63.10;101953.66;5067600;28;20034;-75
2022/11/11 09:11:12;;;;;;;107.70;58.33;;;;;;;16.33;63.55;101951.66;5072340;28;20031;-77
2022/11/11 09:13:39;;;;;;;118.82;59.80;;;;;;;16.33;63.81;101950.78;5061806;28;20398;-76
2022/11/11 09:16:05;;;;;;;129.68;59.17;;;;;;;16.27;63.61;101941.31;5066970;28;20075;-76
2022/11/11 09:18:31;;;;;;;109.65;54.30;;;;;;;16.34;64.02;101952.50;5067707;28;20036;-77
2022/11/11 09:20:59;;;;;;;116.78;54.92;;;;;;;16.30;63.82;101949.19;5067566;28;20119;-75
2022/11/11 09:23:25;;;;;;;104.78;54.97;;;;;;;16.30;64.31;101948.31;5068955;28;20143;-77
2022/11/11 09:25:51;;;;;;;177.73;112.63;;;;;;;16.18;64.16;101933.94;5051758;28;20135;-76
2022/11/11 09:28:16;;;;;;;95.90;54.50;;;;;;;16.33;64.01;101950.78;5071781;28;20028;-75
2022/11/11 09:30:42;;;;;;;109.15;52.75;;;;;;;16.30;63.96;101953.75;5076973;28;20401;-78
2022/11/11 09:33:08;;;;;;;94.28;52.15;;;;;;;16.17;64.06;101934.09;5079043;28;20412;-80
2022/11/11 09:35:34;;;;;;;102.68;51.35;;;;;;;16.26;63.89;101947.75;5088176;28;20109;-75
2022/11/11 09:38:01;;;;;;;120.53;52.83;;;;;;;16.16;63.95;101922.34;5091893;28;20032;-76
2022/11/11 09:40:43;;;;;;;96.43;50.35;;;;;;;16.12;64.06;101926.31;5096309;28;20059;-75
2022/11/11 09:43:32;;;;;;;95.90;50.20;;;;;;;16.34;64.11;101953.38;5096890;28;21403;-75
2022/11/11 09:46:14;;;;;;;103.35;50.53;;;;;;;16.36;64.10;101942.38;5093601;28;20040;-75
2022/11/11 09:48:45;;;;;;;102.57;53.08;;;;;;;16.39;63.94;101944.84;5092007;28;20024;-75
2022/11/11 09:51:19;;;;;;;107.80;51.60;;;;;;;16.32;64.22;101938.22;5092383;28;20095;-75
2022/11/11 09:53:51;;;;;;;109.38;49.88;;;;;;;16.33;64.10;101935.34;5091376;28;20089;-75
2022/11/11 09:56:19;;;;;;;89.10;50.95;;;;;;;16.39;64.21;101939.41;5091959;28;20044;-76
2022/11/11 09:59:03;;;;;;;108.25;52.75;;;;;;;16.35;64.48;101932.53;5092030;28;20034;-78
2022/11/11 10:01:36;;;;;;;97.55;53.97;;;;;;;16.44;64.89;101937.19;5091922;28;20489;-76
2022/11/11 10:04:21;;;;;;;105.28;52.70;;;;;;;16.40;64.58;101932.13;5092378;28;20191;-75
2022/11/11 10:06:51;;;;;;;82.78;49.63;;;;;;;16.44;64.50;101936.31;5076775;28;20140;-77
2022/11/11 10:09:17;;;;;;;100.70;54.55;;;;;;;16.51;64.35;101942.94;5089861;28;20487;-76
2022/11/11 10:11:47;;;;;;;116.38;52.70;;;;;;;16.56;64.22;101940.72;5090416;28;20032;-76
2022/11/11 10:14:13;;;;;;;100.18;53.92;;;;;;;16.62;64.13;101940.19;5089823;28;20529;-75
2022/11/11 10:17:10;;;;;;;206.93;60.30;;;;;;;16.65;63.59;101950.81;5088933;28;20107;-77
2022/11/11 10:19:56;;;;;;;104.60;53.58;;;;;;;16.59;64.00;101929.59;5086992;28;20068;-75
2022/11/11 10:22:29;;;;;;;120.25;54.83;;;;;;;16.76;63.58;101948.00;5080813;28;20043;-76
2022/11/11 10:25:13;;;;;;;99.97;54.17;;;;;;;16.84;63.03;101949.09;5087825;28;20597;-76
2022/11/11 10:27:42;;;;;;;99.18;54.38;;;;;;;16.98;62.57;101939.72;5090198;28;20360;-76
2022/11/11 10:30:17;;;;;;;123.28;57.28;;;;;;;17.08;60.96;101937.94;5092049;28;20032;-76
2022/11/11 10:32:46;;;;;;;86.13;49.72;;;;;;;17.21;59.92;101938.56;5054107;28;20184;-76
2022/11/11 10:35:19;;;;;;;84.72;49.92;;;;;;;17.30;58.91;101937.75;5083672;28;20403;-75
2022/11/11 10:37:44;;;;;;;99.50;51.15;;;;;;;17.31;58.46;101935.88;5081300;28;20103;-76
2022/11/11 10:40:19;;;;;;;106.05;56.67;;;;;;;17.29;58.86;101930.59;5090212;28;20120;-76
2022/11/11 10:42:44;;;;;;;82.93;48.47;;;;;;;17.33;58.28;101937.50;5089838;28;20407;-76
2022/11/11 10:45:36;;;;;;;130.65;56.00;;;;;;;17.33;58.14;101933.91;5090047;28;20028;-77
2022/11/11 10:48:08;;;;;;;94.18;51.45;;;;;;;17.18;58.26;101910.78;5094041;28;20024;-76
2022/11/11 10:50:40;;;;;;;88.55;51.45;;;;;;;17.34;57.69;101933.75;5101005;28;20028;-76
2022/11/11 10:53:32;;;;;;;98.78;51.45;;;;;;;17.24;58.01;101934.72;5084024;28;20024;-77
2022/11/11 10:56:08;;;;;;;88.30;52.67;;;;;;;17.19;57.73;101937.84;5088842;28;20031;-76
2022/11/11 10:58:40;;;;;;;107.00;55.33;;;;;;;17.26;57.42;101922.72;5082953;28;20024;-77
2022/11/11 11:01:11;;;;;;;99.03;50.92;;;;;;;17.12;57.50;101905.91;5086254;28;20439;-75
2022/11/11 11:03:41;;;;;;;90.10;50.97;;;;;;;17.12;57.87;101909.50;5082837;28;20036;-77
2022/11/11 11:06:14;;;;;;;103.05;47.03;;;;;;;17.17;57.88;101926.25;5089321;28;20474;-79
2022/11/11 11:08:44;;;;;;;121.57;51.47;;;;;;;17.02;58.17;101924.88;5089278;28;20055;-76
2022/11/11 11:11:18;;;;;;;93.65;49.47;;;;;;;16.93;58.73;101922.97;5088505;28;20028;-76
2022/11/11 11:13:58;;;;;;;110.20;55.38;;;;;;;16.85;59.09;101929.06;5066263;28;20024;-77
2022/11/11 11:16:37;;;;;;;98.00;51.85;;;;;;;16.84;59.67;101913.78;5069594;28;20029;-76
2022/11/11 11:19:23;;;;;;;120.75;50.00;;;;;;;16.79;59.41;101920.56;5107100;28;20512;-77
2022/11/11 11:21:57;;;;;;;86.28;49.42;;;;;;;16.75;60.08;101920.00;5091214;28;20024;-76
2022/11/11 11:24:37;;;;;;;237.90;60.17;;;;;;;16.67;59.74;101899.91;5089391;28;20421;-75
2022/11/11 11:27:05;;;;;;;228.40;58.88;;;;;;;16.72;59.47;101916.69;5083279;28;20115;-77
2022/11/11 11:29:35;;;;;;;168.43;56.30;;;;;;;16.79;59.55;101912.41;5081590;28;20479;-75
2022/11/11 11:32:28;;;;;;;147.32;53.75;;;;;;;16.85;59.19;101910.03;5100521;28;20066;-76
2022/11/11 11:34:55;;;;;;;165.05;57.88;;;;;;;16.85;59.11;101909.16;5006433;28;20054;-76
2022/11/11 11:37:23;;;;;;;137.65;53.80;;;;;;;16.87;58.91;101907.19;4990327;28;20511;-78
2022/11/11 11:39:59;;;;;;;96.25;55.17;;;;;;;16.83;58.43;101917.47;4987607;28;20050;-76
2022/11/11 11:42:28;;;;;;;91.97;57.47;;;;;;;16.84;58.78;101918.34;4987348;28;20058;-75
2022/11/11 11:44:54;;;;;;;225.80;62.13;;;;;;;16.85;58.83;101918.19;4996722;28;20505;-76
2022/11/11 11:47:39;;;;;;;122.75;56.30;;;;;;;16.84;58.44;101912.91;5003602;28;20045;-76
2022/11/11 11:50:24;;;;;;;197.05;58.40;;;;;;;16.75;58.47;101910.97;5005794;28;20037;-77
2022/11/11 11:52:59;;;;;;;182.07;59.17;;;;;;;16.73;58.60;101921.09;5005760;28;20050;-76
2022/11/11 11:55:38;;;;;;;104.32;54.13;;;;;;;16.61;58.83;101925.75;5007679;28;20445;-77
2022/11/11 11:58:35;;;;;;;265.00;61.75;;;;;;;16.55;59.42;101930.84;5021652;28;20105;-79
2022/11/11 12:01:05;;;;;;;189.65;61.35;;;;;;;16.44;59.82;101922.72;4987480;28;20042;-78
2022/11/11 12:04:13;;;;;;;123.88;58.15;;;;;;;16.47;59.66;101933.34;4993435;28;20041;-78
2022/11/11 12:06:42;;;;;;;196.88;61.78;;;;;;;16.32;60.12;101906.50;4910078;29;20050;-78
2022/11/11 12:09:46;;;;;;;110.40;58.85;;;;;;;16.49;59.94;101939.47;4909880;29;20040;-77
2022/11/11 12:12:51;;;;;;;392.83;79.72;;;;;;;16.47;59.73;101925.19;4954699;28;20050;-77
2022/11/11 12:15:32;;;;;;;1999.90;999.90;;;;;;;16.34;60.15;101923.50;4987023;28;20022;-75
2022/11/11 12:18:05;;;;;;;1999.90;328.00;;;;;;;16.31;60.02;101929.22;4986331;28;20030;-78
2022/11/11 12:20:57;;;;;;;1061.30;142.57;;;;;;;16.30;60.39;101930.19;4986969;28;20045;-77
2022/11/11 12:23:46;;;;;;;113.97;61.38;;;;;;;16.29;59.87;101933.06;4997951;28;20145;-79
2022/11/11 12:26:20;;;;;;;155.32;57.97;;;;;;;16.21;60.09;101930.97;4988182;28;20058;-78
2022/11/11 12:29:11;;;;;;;116.30;59.67;;;;;;;16.15;60.57;101931.47;5002502;28;20046;-76
2022/11/11 12:31:57;;;;;;;102.60;55.88;;;;;;;16.05;60.48;101941.41;5006247;28;20038;-78
2022/11/11 12:35:23;;;;;;;121.13;59.75;;;;;;;15.83;60.80;101903.47;5005754;28;20062;-78
2022/11/11 12:37:49;;;;;;;128.30;56.38;;;;;;;16.00;60.68;101938.19;4966589;28;20082;-78